createdAt,value
2017-08-06T00:00:34.406Z,0
2017-08-06T00:01:44.329Z,0
2017-08-06T00:02:54.570Z,0
2017-08-06T00:04:04.195Z,0
2017-08-06T00:05:14.137Z,0
2017-08-06T00:06:24.375Z,0
2017-08-06T00:07:34.614Z,0
2017-08-06T00:08:44.247Z,0
2017-08-06T00:09:54.167Z,0
2017-08-06T00:11:04.414Z,0
2017-08-06T00:12:14.648Z,0
2017-08-06T00:13:24.599Z,0
2017-08-06T00:14:34.535Z,0
2017-08-06T00:15:44.478Z,0
2017-08-06T00:16:54.718Z,0
2017-08-06T00:18:04.674Z,0
2017-08-06T00:19:14.607Z,0
2017-08-06T00:20:24.873Z,0
2017-08-06T00:21:34.799Z,0
2017-08-06T00:22:44.426Z,0
2017-08-06T00:23:54.349Z,0
2017-08-06T00:25:03.994Z,0
2017-08-06T00:26:13.626Z,0
2017-08-06T00:27:23.569Z,0
2017-08-06T00:28:33.487Z,0
2017-08-06T00:29:42.486Z,0
2017-08-06T00:30:52.098Z,0
2017-08-06T00:32:01.769Z,0
2017-08-06T00:33:11.712Z,0
2017-08-06T00:34:21.954Z,0
2017-08-06T00:35:31.921Z,0
2017-08-06T00:36:41.842Z,0
2017-08-06T00:37:52.082Z,0
2017-08-06T00:39:01.700Z,0
2017-08-06T00:40:11.653Z,0
2017-08-06T00:41:20.981Z,0
2017-08-06T00:42:30.909Z,0
2017-08-06T00:43:41.151Z,0
2017-08-06T00:44:50.770Z,0
2017-08-06T00:46:00.706Z,0
2017-08-06T00:47:10.373Z,0
2017-08-06T00:48:20.621Z,0
2017-08-06T00:49:30.855Z,0
2017-08-06T00:50:41.095Z,0
2017-08-06T00:51:51.323Z,0
2017-08-06T00:53:01.258Z,0
2017-08-06T00:54:11.526Z,0
2017-08-06T00:55:21.473Z,0
2017-08-06T00:56:31.398Z,0
2017-08-06T00:57:40.710Z,0
2017-08-06T00:58:50.978Z,0
2017-08-06T01:00:01.220Z,0
2017-08-06T01:01:10.224Z,0
2017-08-06T01:02:20.161Z,0
2017-08-06T01:03:30.087Z,0
2017-08-06T01:04:39.402Z,0
2017-08-06T01:05:49.019Z,0
2017-08-06T01:06:59.250Z,0
2017-08-06T01:08:09.177Z,0
2017-08-06T01:09:19.093Z,0
2017-08-06T01:10:28.406Z,0
2017-08-06T01:11:38.651Z,0
2017-08-06T01:12:48.572Z,0
2017-08-06T01:13:58.820Z,0
2017-08-06T01:15:08.754Z,0
2017-08-06T01:16:18.692Z,0
2017-08-06T01:17:28.637Z,0
2017-08-06T01:18:38.255Z,0
2017-08-06T01:19:48.485Z,0
2017-08-06T01:20:58.116Z,0
2017-08-06T01:22:08.033Z,0
2017-08-06T01:23:17.949Z,0
2017-08-06T01:24:27.885Z,0
2017-08-06T01:25:37.502Z,0
2017-08-06T01:26:47.437Z,0
2017-08-06T01:27:57.366Z,0
2017-08-06T01:29:07.285Z,0
2017-08-06T01:30:17.219Z,0
2017-08-06T01:31:27.463Z,0
2017-08-06T01:32:37.085Z,0
2017-08-06T01:33:47.317Z,0
2017-08-06T01:34:57.237Z,0
2017-08-06T01:36:07.181Z,0
2017-08-06T01:37:16.516Z,0
2017-08-06T01:38:25.523Z,0
2017-08-06T01:39:35.462Z,0
2017-08-06T01:40:45.705Z,0
2017-08-06T01:41:55.629Z,0
2017-08-06T01:43:05.873Z,0
2017-08-06T01:44:16.126Z,0
2017-08-06T01:45:25.753Z,0
2017-08-06T01:46:35.698Z,0
2017-08-06T01:47:45.938Z,0
2017-08-06T01:48:56.165Z,0
2017-08-06T01:50:06.410Z,0
2017-08-06T01:51:16.048Z,0
2017-08-06T01:52:25.677Z,0
2017-08-06T01:53:35.305Z,0
2017-08-06T01:54:45.539Z,0
2017-08-06T01:55:56.180Z,0
2017-08-06T01:57:05.813Z,0
2017-08-06T01:58:15.465Z,0
2017-08-06T01:59:25.699Z,0
2017-08-06T02:00:35.946Z,0
2017-08-06T02:01:45.877Z,0
2017-08-06T02:02:55.814Z,0
2017-08-06T02:04:06.052Z,0
2017-08-06T02:05:16.289Z,0
2017-08-06T02:06:25.901Z,0
2017-08-06T02:07:35.515Z,0
2017-08-06T02:08:45.435Z,0
2017-08-06T02:09:55.359Z,0
2017-08-06T02:11:05.284Z,0
2017-08-06T02:12:14.594Z,0
2017-08-06T02:13:24.829Z,0
2017-08-06T02:14:35.046Z,0
2017-08-06T02:15:44.981Z,0
2017-08-06T02:16:55.219Z,0
2017-08-06T02:18:04.542Z,0
2017-08-06T02:19:14.796Z,0
2017-08-06T02:20:24.725Z,0
2017-08-06T02:21:34.961Z,0
2017-08-06T02:22:44.902Z,0
2017-08-06T02:23:55.151Z,0
2017-08-06T02:25:04.771Z,0
2017-08-06T02:26:14.095Z,0
2017-08-06T02:27:24.025Z,0
2017-08-06T02:28:33.949Z,0
2017-08-06T02:29:44.183Z,0
2017-08-06T02:30:54.429Z,0
2017-08-06T02:32:03.755Z,0
2017-08-06T02:33:13.672Z,0
2017-08-06T02:34:23.286Z,0
2017-08-06T02:35:33.220Z,0
2017-08-06T02:36:43.460Z,0
2017-08-06T02:37:53.391Z,0
2017-08-06T02:39:03.320Z,0
2017-08-06T02:40:13.252Z,0
2017-08-06T02:41:23.494Z,0
2017-08-06T02:42:33.111Z,0
2017-08-06T02:43:43.038Z,0
2017-08-06T02:44:52.692Z,0
2017-08-06T02:46:03.020Z,0
2017-08-06T02:47:13.268Z,0
2017-08-06T02:48:23.198Z,0
2017-08-06T02:49:33.135Z,0
2017-08-06T02:50:43.066Z,0
2017-08-06T02:51:52.873Z,0
2017-08-06T02:53:03.116Z,0
2017-08-06T02:54:13.351Z,0
2017-08-06T02:55:22.986Z,0
2017-08-06T02:56:32.618Z,0
2017-08-06T02:57:42.541Z,0
2017-08-06T02:58:52.160Z,0
2017-08-06T03:00:01.789Z,0
2017-08-06T03:01:12.030Z,0
2017-08-06T03:02:21.950Z,0
2017-08-06T03:03:31.892Z,0
2017-08-06T03:04:42.119Z,0
2017-08-06T03:05:52.076Z,0
2017-08-06T03:07:02.009Z,0
2017-08-06T03:08:11.934Z,0
2017-08-06T03:09:22.163Z,0
2017-08-06T03:10:32.089Z,0
2017-08-06T03:11:41.423Z,0
2017-08-06T03:12:51.350Z,0
2017-08-06T03:16:33.370Z,0
2017-08-06T03:17:43.293Z,0
2017-08-06T03:18:53.517Z,0
2017-08-06T03:20:03.746Z,0
2017-08-06T03:21:13.379Z,0
2017-08-06T03:22:23.618Z,0
2017-08-06T03:23:33.570Z,0
2017-08-06T03:24:44.193Z,0
2017-08-06T03:25:53.824Z,0
2017-08-06T03:27:03.823Z,0
2017-08-06T03:28:13.899Z,0
2017-08-06T03:29:23.838Z,0
2017-08-06T03:30:33.772Z,0
2017-08-06T03:31:43.699Z,0
2017-08-06T03:32:53.635Z,0
2017-08-06T03:34:03.556Z,0
2017-08-06T03:35:13.785Z,0
2017-08-06T03:36:24.016Z,0
2017-08-06T03:37:34.272Z,0
2017-08-06T03:38:44.504Z,0
2017-08-06T03:39:54.734Z,0
2017-08-06T03:41:04.648Z,4
2017-08-06T03:42:14.876Z,0
2017-08-06T03:43:25.098Z,0
2017-08-06T03:44:35.321Z,4
2017-08-06T03:45:45.242Z,0
2017-08-06T03:46:55.179Z,4
2017-08-06T03:48:05.427Z,8
2017-08-06T03:49:15.346Z,4
2017-08-06T03:50:25.272Z,8
2017-08-06T03:51:35.198Z,8
2017-08-06T03:52:45.114Z,8
2017-08-06T03:53:55.048Z,8
2017-08-06T03:55:04.676Z,8
2017-08-06T03:56:14.617Z,12
2017-08-06T03:57:24.560Z,12
2017-08-06T03:58:34.807Z,16
2017-08-06T03:59:44.432Z,20
2017-08-06T04:00:54.094Z,20
2017-08-06T04:02:04.380Z,20
2017-08-06T04:03:14.352Z,24
2017-08-06T04:04:24.295Z,24
2017-08-06T04:05:34.543Z,28
2017-08-06T04:06:44.465Z,28
2017-08-06T04:07:53.772Z,32
2017-08-06T04:09:03.714Z,32
2017-08-06T04:10:13.646Z,32
2017-08-06T04:11:23.900Z,32
2017-08-06T04:12:33.524Z,32
2017-08-06T04:13:43.778Z,36
2017-08-06T04:14:53.698Z,36
2017-08-06T04:16:03.325Z,40
2017-08-06T04:17:13.562Z,40
2017-08-06T04:18:23.174Z,40
2017-08-06T04:19:32.791Z,44
2017-08-06T04:20:43.045Z,48
2017-08-06T04:21:53.000Z,52
2017-08-06T04:23:02.938Z,56
2017-08-06T04:24:12.569Z,60
2017-08-06T04:25:22.498Z,64
2017-08-06T04:26:32.433Z,64
2017-08-06T04:27:42.364Z,72
2017-08-06T04:28:52.292Z,72
2017-08-06T04:30:02.208Z,72
2017-08-06T04:31:12.442Z,68
2017-08-06T04:32:22.056Z,72
2017-08-06T04:33:31.690Z,68
2017-08-06T04:34:41.322Z,68
2017-08-06T04:35:51.246Z,64
2017-08-06T04:37:01.173Z,64
2017-08-06T04:38:11.405Z,68
2017-08-06T04:39:20.710Z,72
2017-08-06T04:40:30.998Z,72
2017-08-06T04:41:40.946Z,80
2017-08-06T04:42:50.871Z,84
2017-08-06T04:44:01.105Z,100
2017-08-06T04:45:10.727Z,120
2017-08-06T04:46:20.971Z,132
2017-08-06T04:47:29.970Z,148
2017-08-06T04:48:39.890Z,164
2017-08-06T04:49:49.833Z,168
2017-08-06T04:50:59.165Z,184
2017-08-06T04:52:09.113Z,196
2017-08-06T04:53:18.425Z,220
2017-08-06T04:54:28.343Z,236
2017-08-06T04:55:37.965Z,248
2017-08-06T04:56:47.274Z,280
2017-08-06T04:57:57.207Z,308
2017-08-06T04:59:07.119Z,348
2017-08-06T05:00:17.360Z,388
2017-08-06T05:01:27.290Z,412
2017-08-06T05:02:37.517Z,436
2017-08-06T05:03:47.443Z,484
2017-08-06T05:04:57.084Z,560
2017-08-06T05:06:07.306Z,568
2017-08-06T05:07:16.624Z,648
2017-08-06T05:08:26.886Z,668
2017-08-06T05:09:36.817Z,656
2017-08-06T05:10:46.431Z,944
2017-08-06T05:11:56.356Z,1184
2017-08-06T05:13:06.280Z,856
2017-08-06T05:14:16.528Z,1228
2017-08-06T05:15:26.148Z,672
2017-08-06T05:16:36.060Z,548
2017-08-06T05:17:45.982Z,640
2017-08-06T05:18:55.285Z,872
2017-08-06T05:20:05.208Z,1060
2017-08-06T05:21:15.438Z,1008
2017-08-06T05:22:25.372Z,1360
2017-08-06T05:23:34.992Z,1808
2017-08-06T05:24:44.910Z,984
2017-08-06T05:25:55.151Z,2288
2017-08-06T05:27:05.079Z,2416
2017-08-06T05:28:15.309Z,2356
2017-08-06T05:29:25.239Z,2740
2017-08-06T05:30:35.465Z,2816
2017-08-06T05:31:45.099Z,2732
2017-08-06T05:32:55.040Z,2108
2017-08-06T05:34:04.968Z,872
2017-08-06T05:35:15.205Z,684
2017-08-06T05:36:25.138Z,588
2017-08-06T05:37:35.378Z,588
2017-08-06T05:38:45.325Z,556
2017-08-06T05:39:55.561Z,548
2017-08-06T05:41:05.478Z,548
2017-08-06T05:42:15.412Z,536
2017-08-06T05:43:25.036Z,528
2017-08-06T05:44:34.969Z,532
2017-08-06T05:45:45.205Z,548
2017-08-06T05:46:55.436Z,596
2017-08-06T05:48:05.061Z,648
2017-08-06T05:49:14.983Z,668
2017-08-06T05:50:24.597Z,680
2017-08-06T05:51:34.525Z,672
2017-08-06T05:52:44.447Z,664
2017-08-06T05:53:54.684Z,636
2017-08-06T05:55:04.318Z,644
2017-08-06T05:56:13.948Z,700
2017-08-06T05:57:23.888Z,764
2017-08-06T05:58:33.514Z,768
2017-08-06T05:59:42.817Z,780
2017-08-06T06:00:52.785Z,820
2017-08-06T06:02:03.024Z,872
2017-08-06T06:03:12.973Z,932
2017-08-06T06:04:22.898Z,1008
2017-08-06T06:05:32.203Z,1036
2017-08-06T06:06:42.133Z,1024
2017-08-06T06:07:52.381Z,968
2017-08-06T06:09:02.314Z,900
2017-08-06T06:10:12.546Z,832
2017-08-06T06:11:22.782Z,792
2017-08-06T06:12:32.705Z,732
2017-08-06T06:13:42.933Z,644
2017-08-06T06:14:52.550Z,564
2017-08-06T06:16:02.476Z,520
2017-08-06T06:17:12.718Z,492
2017-08-06T06:18:22.960Z,512
2017-08-06T06:19:33.197Z,560
2017-08-06T06:20:43.439Z,620
2017-08-06T06:21:53.674Z,664
2017-08-06T06:23:03.622Z,696
2017-08-06T06:24:12.652Z,656
2017-08-06T06:25:22.284Z,616
2017-08-06T06:26:31.907Z,600
2017-08-06T06:27:42.152Z,608
2017-08-06T06:28:52.238Z,640
2017-08-06T06:30:02.469Z,656
2017-08-06T06:31:12.154Z,672
2017-08-06T06:32:21.771Z,668
2017-08-06T06:33:31.755Z,700
2017-08-06T06:34:41.682Z,884
2017-08-06T06:35:51.003Z,932
2017-08-06T06:37:01.258Z,788
2017-08-06T06:38:11.193Z,752
2017-08-06T06:39:20.822Z,748
2017-08-06T06:40:31.051Z,740
2017-08-06T06:41:40.969Z,764
2017-08-06T06:42:50.602Z,828
2017-08-06T06:44:00.528Z,924
2017-08-06T06:45:10.827Z,1016
2017-08-06T06:46:20.753Z,1144
2017-08-06T06:47:31.018Z,1220
2017-08-06T06:48:41.255Z,1312
2017-08-06T06:49:51.178Z,1492
2017-08-06T06:51:01.883Z,1496
2017-08-06T06:52:11.884Z,1460
2017-08-06T06:53:21.832Z,1436
2017-08-06T06:54:32.455Z,1524
2017-08-06T06:55:43.182Z,1640
2017-08-06T06:56:53.122Z,1672
2017-08-06T06:58:03.461Z,1836
2017-08-06T06:59:13.170Z,1816
2017-08-06T07:00:23.096Z,1720
2017-08-06T07:01:32.845Z,2068
2017-08-06T07:02:42.480Z,2460
2017-08-06T07:03:52.723Z,2632
2017-08-06T07:05:02.647Z,2664
2017-08-06T07:06:13.068Z,2564
2017-08-06T07:07:23.572Z,2436
2017-08-06T07:08:33.592Z,2436
2017-08-06T07:09:44.016Z,2484
2017-08-06T07:10:53.948Z,2404
2017-08-06T07:12:04.612Z,2468
2017-08-06T07:13:14.947Z,2376
2017-08-06T07:14:24.573Z,2484
2017-08-06T07:15:34.906Z,2632
2017-08-06T07:16:44.869Z,2512
2017-08-06T07:17:54.492Z,3004
2017-08-06T07:19:04.450Z,4316
2017-08-06T07:20:14.386Z,9672
2017-08-06T07:21:24.658Z,10804
2017-08-06T07:22:34.908Z,10136
2017-08-06T07:23:44.834Z,10760
2017-08-06T07:24:55.066Z,10684
2017-08-06T07:26:05.018Z,10852
2017-08-06T07:27:15.255Z,10148
2017-08-06T07:28:25.495Z,6740
2017-08-06T07:29:35.424Z,8392
2017-08-06T07:30:45.362Z,13916
2017-08-06T07:31:55.631Z,19808
2017-08-06T07:33:04.937Z,29184
2017-08-06T07:34:14.563Z,28544
2017-08-06T07:35:24.489Z,3148
2017-08-06T07:36:34.451Z,1488
2017-08-06T07:37:44.080Z,1328
2017-08-06T07:38:54.019Z,1392
2017-08-06T07:40:03.948Z,3116
2017-08-06T07:41:13.879Z,9740
2017-08-06T07:42:23.853Z,13300
2017-08-06T07:43:33.780Z,35328
2017-08-06T07:44:43.717Z,16620
2017-08-06T07:45:54.000Z,2564
2017-08-06T07:47:03.920Z,3680
2017-08-06T07:48:13.843Z,2672
2017-08-06T07:49:23.475Z,2604
2017-08-06T07:50:33.719Z,19104
2017-08-06T07:51:43.634Z,1332
2017-08-06T07:52:53.566Z,1116
2017-08-06T07:54:03.838Z,1672
2017-08-06T07:55:14.094Z,2336
2017-08-06T07:56:24.022Z,1516
2017-08-06T07:57:33.954Z,1764
2017-08-06T07:58:43.880Z,5100
2017-08-06T07:59:54.119Z,1536
2017-08-06T08:01:04.049Z,1884
2017-08-06T08:02:13.671Z,14300
2017-08-06T08:03:23.911Z,20064
2017-08-06T08:04:34.167Z,11828
2017-08-06T08:05:43.801Z,4692
2017-08-06T08:06:54.044Z,1464
2017-08-06T08:08:03.681Z,1276
2017-08-06T08:09:13.948Z,1280
2017-08-06T08:10:23.563Z,1164
2017-08-06T08:11:32.884Z,1152
2017-08-06T08:12:42.519Z,1024
2017-08-06T08:13:52.162Z,1024
2017-08-06T08:15:02.418Z,1040
2017-08-06T08:16:11.742Z,1108
2017-08-06T08:17:21.369Z,1160
2017-08-06T08:18:31.310Z,1372
2017-08-06T08:19:41.229Z,1888
2017-08-06T08:20:51.470Z,1872
2017-08-06T08:22:01.394Z,2052
2017-08-06T08:23:11.028Z,1580
2017-08-06T08:24:21.275Z,1652
2017-08-06T08:25:30.905Z,3636
2017-08-06T08:26:40.833Z,5592
2017-08-06T08:27:50.772Z,5504
2017-08-06T08:29:01.032Z,5332
2017-08-06T08:30:10.653Z,5288
2017-08-06T08:31:20.274Z,5452
2017-08-06T08:32:29.894Z,5536
2017-08-06T08:33:40.122Z,5744
2017-08-06T08:34:49.747Z,5768
2017-08-06T08:35:59.365Z,5744
2017-08-06T08:37:09.008Z,5760
2017-08-06T08:38:18.348Z,5828
2017-08-06T08:39:28.282Z,6604
2017-08-06T08:40:38.210Z,4592
2017-08-06T08:41:47.542Z,2444
2017-08-06T08:42:56.859Z,1472
2017-08-06T08:44:07.117Z,1248
2017-08-06T08:45:16.758Z,1288
2017-08-06T08:46:26.690Z,1436
2017-08-06T08:47:36.921Z,3672
2017-08-06T08:48:45.936Z,2796
2017-08-06T08:49:55.906Z,4536
2017-08-06T08:51:05.532Z,2480
2017-08-06T08:52:15.478Z,6520
2017-08-06T08:53:25.728Z,7404
2017-08-06T08:54:35.397Z,6696
2017-08-06T08:55:45.362Z,6616
2017-08-06T08:56:55.620Z,7260
2017-08-06T08:58:05.888Z,6760
2017-08-06T08:59:16.125Z,2968
2017-08-06T09:00:26.374Z,8272
2017-08-06T09:01:36.308Z,13568
2017-08-06T09:02:46.246Z,20960
2017-08-06T09:03:55.887Z,5484
2017-08-06T09:05:05.865Z,1980
2017-08-06T09:06:16.118Z,1536
2017-08-06T09:07:25.749Z,1468
2017-08-06T09:08:35.992Z,1380
2017-08-06T09:09:45.935Z,1404
2017-08-06T09:10:55.872Z,1336
2017-08-06T09:12:05.526Z,1468
2017-08-06T09:13:15.480Z,1360
2017-08-06T09:14:25.424Z,1084
2017-08-06T09:15:35.664Z,1004
2017-08-06T09:16:45.901Z,1024
2017-08-06T09:17:56.151Z,884
2017-08-06T09:19:06.397Z,1172
2017-08-06T09:20:16.637Z,1044
2017-08-06T09:21:26.596Z,1040
2017-08-06T09:22:36.841Z,976
2017-08-06T09:23:46.474Z,736
2017-08-06T09:24:56.433Z,828
2017-08-06T09:26:06.691Z,908
2017-08-06T09:27:16.639Z,1128
2017-08-06T09:28:26.586Z,1180
2017-08-06T09:29:36.856Z,1144
2017-08-06T09:30:47.092Z,1108
2017-08-06T09:31:57.032Z,864
2017-08-06T09:33:06.690Z,888
2017-08-06T09:34:15.704Z,888
2017-08-06T09:35:25.658Z,868
2017-08-06T09:36:35.608Z,912
2017-08-06T09:37:45.534Z,1100
2017-08-06T09:38:54.544Z,1124
2017-08-06T09:40:04.474Z,1208
2017-08-06T09:41:14.414Z,1312
2017-08-06T09:42:24.359Z,1360
2017-08-06T09:43:34.293Z,1340
2017-08-06T09:44:44.238Z,1292
2017-08-06T09:45:54.191Z,1088
2017-08-06T09:47:04.449Z,1120
2017-08-06T09:48:14.409Z,1096
2017-08-06T09:49:24.673Z,1008
2017-08-06T09:50:34.911Z,968
2017-08-06T09:51:45.176Z,1172
2017-08-06T09:52:55.094Z,1488
2017-08-06T09:54:05.327Z,1556
2017-08-06T09:55:15.259Z,1500
2017-08-06T09:56:25.252Z,1452
2017-08-06T09:57:34.885Z,1280
2017-08-06T09:58:45.133Z,1164
2017-08-06T09:59:55.074Z,1116
2017-08-06T10:01:05.029Z,1060
2017-08-06T10:02:14.716Z,1000
2017-08-06T10:03:24.959Z,972
2017-08-06T10:04:34.900Z,916
2017-08-06T10:05:44.815Z,908
2017-08-06T10:06:55.070Z,888
2017-08-06T10:08:04.997Z,868
2017-08-06T10:09:14.957Z,860
2017-08-06T10:10:24.919Z,852
2017-08-06T10:11:34.559Z,884
2017-08-06T10:12:44.485Z,900
2017-08-06T10:13:54.748Z,860
2017-08-06T10:15:05.002Z,828
2017-08-06T10:16:14.940Z,776
2017-08-06T10:17:24.886Z,756
2017-08-06T10:18:35.129Z,852
2017-08-06T10:19:45.364Z,972
2017-08-06T10:20:55.601Z,976
2017-08-06T10:22:05.858Z,960
2017-08-06T10:23:15.783Z,944
2017-08-06T10:24:25.738Z,872
2017-08-06T10:25:35.368Z,812
2017-08-06T10:26:44.980Z,952
2017-08-06T10:27:55.199Z,908
2017-08-06T10:29:05.129Z,888
2017-08-06T10:30:15.367Z,864
2017-08-06T10:31:25.294Z,804
2017-08-06T10:32:34.607Z,768
2017-08-06T10:33:44.536Z,748
2017-08-06T10:34:54.150Z,724
2017-08-06T10:36:03.778Z,724
2017-08-06T10:37:13.695Z,724
2017-08-06T10:40:56.014Z,744
2017-08-06T10:42:05.671Z,736
2017-08-06T10:43:15.287Z,736
2017-08-06T10:44:25.213Z,732
2017-08-06T10:45:35.437Z,732
2017-08-06T10:46:45.069Z,732
2017-08-06T10:47:54.701Z,756
2017-08-06T10:49:04.337Z,780
2017-08-06T10:50:14.278Z,788
2017-08-06T10:51:24.218Z,772
2017-08-06T10:52:33.540Z,756
2017-08-06T10:53:43.466Z,756
2017-08-06T10:54:53.404Z,828
2017-08-06T10:56:03.351Z,936
2017-08-06T10:57:12.972Z,1020
2017-08-06T10:58:22.914Z,1040
2017-08-06T10:59:32.860Z,1036
2017-08-06T11:00:42.799Z,1032
2017-08-06T11:01:52.126Z,984
2017-08-06T11:03:02.373Z,928
2017-08-06T11:04:12.635Z,832
2017-08-06T11:05:22.551Z,712
2017-08-06T11:06:32.490Z,648
2017-08-06T11:07:42.113Z,676
2017-08-06T11:08:51.419Z,800
2017-08-06T11:10:00.737Z,812
2017-08-06T11:11:10.671Z,820
2017-08-06T11:12:20.918Z,836
2017-08-06T11:13:30.525Z,908
2017-08-06T11:14:40.455Z,1036
2017-08-06T11:15:50.101Z,968
2017-08-06T11:16:59.716Z,880
2017-08-06T11:18:09.366Z,852
2017-08-06T11:19:18.678Z,812
2017-08-06T11:20:28.626Z,896
2017-08-06T11:21:38.554Z,964
2017-08-06T11:22:48.480Z,984
2017-08-06T11:23:58.401Z,1064
2017-08-06T11:25:08.325Z,1048
2017-08-06T11:26:17.955Z,980
2017-08-06T11:27:27.581Z,884
2017-08-06T11:28:37.192Z,812
2017-08-06T11:29:46.806Z,772
2017-08-06T11:30:56.441Z,800
2017-08-06T11:32:06.370Z,760
2017-08-06T11:33:16.607Z,856
2017-08-06T11:34:26.848Z,848
2017-08-06T11:35:36.779Z,848
2017-08-06T11:36:46.699Z,812
2017-08-06T11:37:56.321Z,880
2017-08-06T11:39:05.958Z,940
2017-08-06T11:40:15.877Z,748
2017-08-06T11:41:25.508Z,728
2017-08-06T11:42:35.766Z,804
2017-08-06T11:43:45.400Z,820
2017-08-06T11:44:55.324Z,744
2017-08-06T11:46:04.938Z,728
2017-08-06T11:47:15.179Z,632
2017-08-06T11:48:24.800Z,604
2017-08-06T11:49:35.022Z,628
2017-08-06T11:50:44.341Z,660
2017-08-06T11:51:54.285Z,704
2017-08-06T11:53:03.908Z,796
2017-08-06T11:54:14.160Z,860
2017-08-06T11:55:23.790Z,876
2017-08-06T11:56:33.397Z,824
2017-08-06T11:57:43.631Z,740
2017-08-06T11:58:53.588Z,692
2017-08-06T12:00:02.902Z,684
2017-08-06T12:01:12.827Z,652
2017-08-06T12:02:22.136Z,640
2017-08-06T12:03:32.364Z,616
2017-08-06T12:04:41.994Z,648
2017-08-06T12:05:52.229Z,664
2017-08-06T12:07:01.232Z,676
2017-08-06T12:08:10.863Z,632
2017-08-06T12:09:20.521Z,588
2017-08-06T12:10:30.447Z,628
2017-08-06T12:11:40.409Z,632
2017-08-06T12:12:49.716Z,560
2017-08-06T12:13:59.983Z,560
2017-08-06T12:15:08.988Z,608
2017-08-06T12:16:18.623Z,716
2017-08-06T12:17:27.932Z,812
2017-08-06T12:18:37.873Z,916
2017-08-06T12:19:48.107Z,872
2017-08-06T12:20:57.425Z,1052
2017-08-06T12:22:07.045Z,1076
2017-08-06T12:23:16.985Z,904
2017-08-06T12:24:26.947Z,916
2017-08-06T12:25:36.575Z,960
2017-08-06T12:26:46.512Z,964
2017-08-06T12:27:56.742Z,1064
2017-08-06T12:29:06.994Z,988
2017-08-06T12:30:16.934Z,972
2017-08-06T12:31:26.619Z,952
2017-08-06T12:32:36.869Z,948
2017-08-06T12:33:46.788Z,908
2017-08-06T12:34:56.729Z,828
2017-08-06T12:36:06.976Z,764
2017-08-06T12:37:16.976Z,760
2017-08-06T12:38:26.900Z,764
2017-08-06T12:39:36.533Z,740
2017-08-06T12:40:46.770Z,720
2017-08-06T12:41:56.709Z,716
2017-08-06T12:43:06.684Z,696
2017-08-06T12:44:16.972Z,604
2017-08-06T12:45:26.928Z,768
2017-08-06T12:46:36.874Z,796
2017-08-06T12:47:47.381Z,832
2017-08-06T12:48:57.381Z,944
2017-08-06T12:50:07.035Z,904
2017-08-06T12:51:17.040Z,964
2017-08-06T12:52:27.338Z,1028
2017-08-06T12:53:37.637Z,932
2017-08-06T12:54:47.285Z,892
2017-08-06T12:55:57.257Z,876
2017-08-06T12:57:07.754Z,1012
2017-08-06T12:58:17.703Z,820
2017-08-06T12:59:27.656Z,820
2017-08-06T13:00:37.283Z,920
2017-08-06T13:01:46.921Z,1016
2017-08-06T13:02:56.614Z,960
2017-08-06T13:04:06.583Z,960
2017-08-06T13:05:16.261Z,884
2017-08-06T13:06:25.958Z,848
2017-08-06T13:07:35.936Z,812
2017-08-06T13:08:46.247Z,908
2017-08-06T13:09:55.926Z,884
2017-08-06T13:11:06.173Z,900
2017-08-06T13:12:15.512Z,892
2017-08-06T13:13:25.759Z,820
2017-08-06T13:14:35.759Z,812
2017-08-06T13:15:45.409Z,776
2017-08-06T13:16:55.361Z,772
2017-08-06T13:18:04.727Z,760
2017-08-06T13:19:14.678Z,744
2017-08-06T13:20:24.650Z,716
2017-08-06T13:21:34.638Z,684
2017-08-06T13:22:44.308Z,656
2017-08-06T13:23:54.574Z,660
2017-08-06T13:25:04.853Z,680
2017-08-06T13:26:14.181Z,676
2017-08-06T13:27:24.163Z,676
2017-08-06T13:28:34.451Z,640
2017-08-06T13:29:44.165Z,644
2017-08-06T13:30:53.814Z,644
2017-08-06T13:32:03.770Z,628
2017-08-06T13:33:13.731Z,600
2017-08-06T13:34:23.397Z,592
2017-08-06T13:35:33.652Z,576
2017-08-06T13:36:43.948Z,540
2017-08-06T13:37:53.931Z,580
2017-08-06T13:39:03.285Z,468
2017-08-06T13:40:12.944Z,528
2017-08-06T13:41:22.922Z,456
2017-08-06T13:42:32.881Z,464
2017-08-06T13:43:42.841Z,476
2017-08-06T13:44:52.531Z,508
2017-08-06T13:46:02.497Z,672
2017-08-06T13:47:12.771Z,648
2017-08-06T13:48:22.774Z,512
2017-08-06T13:49:32.764Z,536
2017-08-06T13:50:42.764Z,516
2017-08-06T13:51:53.038Z,516
2017-08-06T13:53:03.000Z,524
2017-08-06T13:54:13.009Z,516
2017-08-06T13:55:22.972Z,512
2017-08-06T13:56:33.251Z,520
2017-08-06T13:57:43.290Z,512
2017-08-06T13:58:52.980Z,516
2017-08-06T14:00:02.629Z,536
2017-08-06T14:01:12.892Z,520
2017-08-06T14:02:22.555Z,604
2017-08-06T14:03:32.836Z,536
2017-08-06T14:04:42.506Z,652
2017-08-06T14:05:51.219Z,668
2017-08-06T14:07:00.889Z,696
2017-08-06T14:08:10.833Z,708
2017-08-06T14:09:20.812Z,680
2017-08-06T14:10:30.801Z,480
2017-08-06T14:11:39.829Z,636
2017-08-06T14:12:49.793Z,624
2017-08-06T14:13:59.780Z,544
2017-08-06T14:15:09.740Z,436
2017-08-06T14:16:19.122Z,424
2017-08-06T14:17:28.756Z,412
2017-08-06T14:18:39.020Z,452
2017-08-06T14:19:48.345Z,596
2017-08-06T14:20:57.958Z,600
2017-08-06T14:22:07.574Z,600
2017-08-06T14:23:17.871Z,600
2017-08-06T14:24:27.560Z,420
2017-08-06T14:25:37.508Z,428
2017-08-06T14:26:47.453Z,444
2017-08-06T14:27:57.106Z,472
2017-08-06T14:29:07.329Z,512
2017-08-06T14:30:16.966Z,556
2017-08-06T14:31:26.590Z,544
2017-08-06T14:32:36.826Z,584
2017-08-06T14:33:46.755Z,656
2017-08-06T14:34:56.993Z,664
2017-08-06T14:36:06.328Z,532
2017-08-06T14:37:16.562Z,508
2017-08-06T14:38:25.902Z,532
2017-08-06T14:39:35.522Z,568
2017-08-06T14:40:45.501Z,552
2017-08-06T14:41:55.420Z,532
2017-08-06T14:43:04.889Z,528
2017-08-06T14:44:14.505Z,504
2017-08-06T14:45:24.138Z,504
2017-08-06T14:46:34.220Z,656
2017-08-06T14:47:44.565Z,644
2017-08-06T14:48:54.852Z,636
2017-08-06T14:50:04.808Z,632
2017-08-06T14:51:14.572Z,612
2017-08-06T14:52:24.531Z,592
2017-08-06T14:53:34.239Z,576
2017-08-06T14:54:43.892Z,564
2017-08-06T14:55:53.257Z,576
2017-08-06T14:57:03.211Z,580
2017-08-06T14:58:13.528Z,568
2017-08-06T14:59:23.229Z,560
2017-08-06T15:00:32.912Z,564
2017-08-06T15:01:43.110Z,564
2017-08-06T15:02:53.646Z,564
2017-08-06T15:04:03.696Z,564
2017-08-06T15:05:13.701Z,576
2017-08-06T15:06:23.694Z,560
2017-08-06T15:07:33.667Z,552
2017-08-06T15:08:43.651Z,460
2017-08-06T15:09:53.627Z,420
2017-08-06T15:11:02.975Z,404
2017-08-06T15:12:11.702Z,536
2017-08-06T15:13:21.991Z,548
2017-08-06T15:14:32.005Z,552
2017-08-06T15:15:42.325Z,536
2017-08-06T15:16:51.990Z,428
2017-08-06T15:18:02.288Z,484
2017-08-06T15:19:12.288Z,448
2017-08-06T15:20:22.594Z,404
2017-08-06T15:21:32.695Z,400
2017-08-06T15:22:43.040Z,400
2017-08-06T15:23:53.036Z,396
2017-08-06T15:25:03.284Z,392
2017-08-06T15:26:14.031Z,388
2017-08-06T15:27:24.348Z,504
2017-08-06T15:28:34.444Z,380
2017-08-06T15:29:44.257Z,404
2017-08-06T15:30:54.643Z,380
2017-08-06T15:32:05.507Z,372
2017-08-06T15:33:15.524Z,364
2017-08-06T15:34:25.806Z,360
2017-08-06T15:35:35.894Z,356
2017-08-06T15:36:46.723Z,356
2017-08-06T15:37:56.864Z,472
2017-08-06T15:39:06.923Z,488
2017-08-06T15:40:16.610Z,364
2017-08-06T15:41:26.991Z,392
2017-08-06T15:42:36.702Z,436
2017-08-06T15:43:46.637Z,372
2017-08-06T15:44:56.556Z,340
2017-08-06T15:46:06.837Z,340
2017-08-06T15:47:17.077Z,444
2017-08-06T15:48:27.420Z,340
2017-08-06T15:49:37.366Z,452
2017-08-06T15:50:47.052Z,328
2017-08-06T15:51:57.986Z,328
2017-08-06T15:53:07.656Z,336
2017-08-06T15:54:17.963Z,340
2017-08-06T15:55:27.890Z,336
2017-08-06T15:56:37.016Z,332
2017-08-06T15:57:46.956Z,328
2017-08-06T15:58:57.212Z,320
2017-08-06T16:00:06.861Z,316
2017-08-06T16:01:16.479Z,312
2017-08-06T16:02:26.743Z,428
2017-08-06T16:03:36.390Z,344
2017-08-06T16:04:46.664Z,392
2017-08-06T16:05:56.345Z,424
2017-08-06T16:07:06.272Z,428
2017-08-06T16:08:15.896Z,312
2017-08-06T16:09:25.833Z,324
2017-08-06T16:10:35.179Z,392
2017-08-06T16:11:44.801Z,432
2017-08-06T16:12:54.740Z,352
2017-08-06T16:14:04.067Z,444
2017-08-06T16:15:14.338Z,448
2017-08-06T16:16:24.602Z,436
2017-08-06T16:17:34.246Z,324